Terminal Aerodrome Forecast
Issued by NWS Shreveport, LA

Home | Current Version | Previous Version | Text Only | Print | Product List | Glossary On
Versions: 1 2 3 4 5 6 7 8 9 10 11 12 13 14 15
000
FTUS44 KSHV 020500
TAFMLU
TAF
KMLU 020540Z 0206/0306 02004KT P6SM -RA BKN006 OVC011
      TEMPO 0209/0213 2SM -DZ BR OVC004
     FM021300 03007KT 2SM BR OVC004
     FM021500 03011KT 4SM BR OVC007
     FM030000 04003KT 2SM BR OVC004
     FM030300 04005KT 1/4SM FG OVC003=

USA.gov is the U.S. government's official web portal to all federal, state and local government web resources and services.